sensor_id;sensor_type;location;lat;lon;timestamp;P1;durP1;ratioP1;P2;durP2;ratioP2
77423;SDS011;66494;47.172;14.678;2023-03-23T00:00:07;3.92;;;3.13;;
77423;SDS011;66494;47.172;14.678;2023-03-23T00:01:09;5.82;;;3.28;;
77423;SDS011;66494;47.172;14.678;2023-03-23T00:02:10;3.72;;;3.20;;
77423;SDS011;66494;47.172;14.678;2023-03-23T00:03:10;3.97;;;3.22;;
77423;SDS011;66494;47.172;14.678;2023-03-23T00:04:10;4.47;;;3.33;;
77423;SDS011;66494;47.172;14.678;2023-03-23T00:05:13;6.47;;;4.53;;
77423;SDS011;66494;47.172;14.678;2023-03-23T00:06:13;7.10;;;3.22;;
77423;SDS011;66494;47.172;14.678;2023-03-23T00:07:17;4.80;;;3.20;;
77423;SDS011;66494;47.172;14.678;2023-03-23T00:08:21;3.65;;;3.17;;
77423;SDS011;66494;47.172;14.678;2023-03-23T00:09:21;5.85;;;3.42;;
77423;SDS011;66494;47.172;14.678;2023-03-23T00:10:24;5.22;;;3.13;;
77423;SDS011;66494;47.172;14.678;2023-03-23T00:11:26;4.97;;;3.13;;
77423;SDS011;66494;47.172;14.678;2023-03-23T00:12:30;5.20;;;3.35;;
77423;SDS011;66494;47.172;14.678;2023-03-23T00:13:33;4.80;;;3.53;;
77423;SDS011;66494;47.172;14.678;2023-03-23T00:14:33;5.88;;;3.40;;
77423;SDS011;66494;47.172;14.678;2023-03-23T00:15:40;6.18;;;3.47;;
77423;SDS011;66494;47.172;14.678;2023-03-23T00:16:41;5.25;;;3.13;;
77423;SDS011;66494;47.172;14.678;2023-03-23T00:17:42;4.40;;;3.30;;
77423;SDS011;66494;47.172;14.678;2023-03-23T00:18:49;4.97;;;3.40;;
77423;SDS011;66494;47.172;14.678;2023-03-23T00:19:52;5.60;;;3.65;;
77423;SDS011;66494;47.172;14.678;2023-03-23T00:20:56;7.68;;;3.53;;
77423;SDS011;66494;47.172;14.678;2023-03-23T00:21:56;5.07;;;3.55;;
77423;SDS011;66494;47.172;14.678;2023-03-23T00:23:00;6.28;;;3.42;;
77423;SDS011;66494;47.172;14.678;2023-03-23T00:24:04;4.18;;;3.08;;
77423;SDS011;66494;47.172;14.678;2023-03-23T00:25:06;5.90;;;3.38;;
77423;SDS011;66494;47.172;14.678;2023-03-23T00:26:08;5.15;;;3.67;;
77423;SDS011;66494;47.172;14.678;2023-03-23T00:27:08;6.93;;;3.25;;
77423;SDS011;66494;47.172;14.678;2023-03-23T00:28:08;6.55;;;3.47;;
77423;SDS011;66494;47.172;14.678;2023-03-23T00:29:16;5.18;;;2.85;;
77423;SDS011;66494;47.172;14.678;2023-03-23T00:30:16;5.25;;;3.35;;
77423;SDS011;66494;47.172;14.678;2023-03-23T00:31:17;8.30;;;3.58;;
77423;SDS011;66494;47.172;14.678;2023-03-23T00:32:20;4.57;;;3.58;;
77423;SDS011;66494;47.172;14.678;2023-03-23T00:33:20;7.60;;;3.47;;
77423;SDS011;66494;47.172;14.678;2023-03-23T00:34:21;7.30;;;3.15;;
77423;SDS011;66494;47.172;14.678;2023-03-23T00:35:22;5.88;;;3.25;;
77423;SDS011;66494;47.172;14.678;2023-03-23T00:36:22;6.45;;;3.45;;
77423;SDS011;66494;47.172;14.678;2023-03-23T00:37:23;6.93;;;3.47;;
77423;SDS011;66494;47.172;14.678;2023-03-23T00:38:24;6.07;;;3.40;;
77423;SDS011;66494;47.172;14.678;2023-03-23T00:39:25;5.28;;;4.05;;
77423;SDS011;66494;47.172;14.678;2023-03-23T00:40:26;6.40;;;3.63;;
77423;SDS011;66494;47.172;14.678;2023-03-23T00:41:27;7.18;;;3.78;;
77423;SDS011;66494;47.172;14.678;2023-03-23T00:42:28;4.03;;;3.13;;
77423;SDS011;66494;47.172;14.678;2023-03-23T00:43:28;5.57;;;3.40;;
77423;SDS011;66494;47.172;14.678;2023-03-23T00:44:30;5.35;;;3.30;;
77423;SDS011;66494;47.172;14.678;2023-03-23T00:45:31;6.95;;;3.42;;
77423;SDS011;66494;47.172;14.678;2023-03-23T00:46:31;5.25;;;4.05;;
77423;SDS011;66494;47.172;14.678;2023-03-23T00:47:32;5.65;;;4.15;;
77423;SDS011;66494;47.172;14.678;2023-03-23T00:48:36;6.82;;;3.33;;
77423;SDS011;66494;47.172;14.678;2023-03-23T00:49:40;5.88;;;3.50;;
77423;SDS011;66494;47.172;14.678;2023-03-23T00:50:41;5.93;;;3.75;;
77423;SDS011;66494;47.172;14.678;2023-03-23T00:51:41;4.53;;;3.70;;
77423;SDS011;66494;47.172;14.678;2023-03-23T00:52:41;5.75;;;2.83;;
77423;SDS011;66494;47.172;14.678;2023-03-23T00:53:42;6.85;;;3.75;;
77423;SDS011;66494;47.172;14.678;2023-03-23T00:54:42;7.28;;;3.75;;
77423;SDS011;66494;47.172;14.678;2023-03-23T00:55:43;3.10;;;2.20;;
77423;SDS011;66494;47.172;14.678;2023-03-23T00:56:43;6.00;;;3.00;;
77423;SDS011;66494;47.172;14.678;2023-03-23T00:57:43;4.35;;;2.92;;
77423;SDS011;66494;47.172;14.678;2023-03-23T00:58:43;4.18;;;2.90;;
77423;SDS011;66494;47.172;14.678;2023-03-23T00:59:44;4.28;;;3.03;;
77423;SDS011;66494;47.172;14.678;2023-03-23T01:00:44;5.03;;;3.60;;
77423;SDS011;66494;47.172;14.678;2023-03-23T01:01:44;4.78;;;3.45;;
77423;SDS011;66494;47.172;14.678;2023-03-23T01:02:45;5.78;;;3.60;;
77423;SDS011;66494;47.172;14.678;2023-03-23T01:03:45;5.05;;;3.67;;
77423;SDS011;66494;47.172;14.678;2023-03-23T01:04:46;4.20;;;3.22;;
77423;SDS011;66494;47.172;14.678;2023-03-23T01:06:48;6.60;;;3.40;;
77423;SDS011;66494;47.172;14.678;2023-03-23T01:07:50;4.90;;;3.60;;
77423;SDS011;66494;47.172;14.678;2023-03-23T01:08:50;5.38;;;3.75;;
77423;SDS011;66494;47.172;14.678;2023-03-23T01:09:50;4.53;;;3.80;;
77423;SDS011;66494;47.172;14.678;2023-03-23T01:11:00;4.78;;;3.10;;
77423;SDS011;66494;47.172;14.678;2023-03-23T01:12:02;5.18;;;3.85;;
77423;SDS011;66494;47.172;14.678;2023-03-23T01:13:02;5.78;;;3.63;;
77423;SDS011;66494;47.172;14.678;2023-03-23T01:14:03;4.43;;;3.28;;
77423;SDS011;66494;47.172;14.678;2023-03-23T01:15:03;4.43;;;3.42;;
77423;SDS011;66494;47.172;14.678;2023-03-23T01:16:04;3.65;;;2.88;;
77423;SDS011;66494;47.172;14.678;2023-03-23T01:17:04;6.13;;;3.80;;
77423;SDS011;66494;47.172;14.678;2023-03-23T01:18:05;4.63;;;3.33;;
77423;SDS011;66494;47.172;14.678;2023-03-23T01:20:05;4.15;;;2.95;;
77423;SDS011;66494;47.172;14.678;2023-03-23T01:21:07;4.22;;;3.45;;
77423;SDS011;66494;47.172;14.678;2023-03-23T01:22:07;4.07;;;3.38;;
77423;SDS011;66494;47.172;14.678;2023-03-23T01:23:08;8.45;;;3.63;;
77423;SDS011;66494;47.172;14.678;2023-03-23T01:24:08;4.93;;;3.60;;
77423;SDS011;66494;47.172;14.678;2023-03-23T01:25:09;7.50;;;3.65;;
77423;SDS011;66494;47.172;14.678;2023-03-23T01:26:11;4.75;;;3.13;;
77423;SDS011;66494;47.172;14.678;2023-03-23T01:27:11;6.68;;;3.92;;
77423;SDS011;66494;47.172;14.678;2023-03-23T01:29:12;5.45;;;3.22;;
77423;SDS011;66494;47.172;14.678;2023-03-23T01:30:12;6.90;;;3.50;;
77423;SDS011;66494;47.172;14.678;2023-03-23T01:31:16;3.92;;;3.00;;
77423;SDS011;66494;47.172;14.678;2023-03-23T01:32:17;4.55;;;3.00;;
77423;SDS011;66494;47.172;14.678;2023-03-23T01:33:17;6.00;;;3.35;;
77423;SDS011;66494;47.172;14.678;2023-03-23T01:34:17;4.90;;;3.50;;
77423;SDS011;66494;47.172;14.678;2023-03-23T01:35:18;4.93;;;3.22;;
77423;SDS011;66494;47.172;14.678;2023-03-23T01:36:19;6.53;;;3.80;;
77423;SDS011;66494;47.172;14.678;2023-03-23T01:37:20;4.43;;;3.28;;
77423;SDS011;66494;47.172;14.678;2023-03-23T01:38:25;5.32;;;3.55;;
77423;SDS011;66494;47.172;14.678;2023-03-23T01:40:26;5.13;;;3.38;;
77423;SDS011;66494;47.172;14.678;2023-03-23T01:41:27;9.60;;;4.72;;
77423;SDS011;66494;47.172;14.678;2023-03-23T01:42:31;5.68;;;4.13;;
77423;SDS011;66494;47.172;14.678;2023-03-23T01:43:32;6.85;;;3.97;;
77423;SDS011;66494;47.172;14.678;2023-03-23T01:45:34;6.72;;;4.38;;
77423;SDS011;66494;47.172;14.678;2023-03-23T01:46:35;7.57;;;3.75;;
77423;SDS011;66494;47.172;14.678;2023-03-23T01:47:35;9.15;;;3.95;;
77423;SDS011;66494;47.172;14.678;2023-03-23T01:48:36;9.73;;;4.28;;
77423;SDS011;66494;47.172;14.678;2023-03-23T01:49:38;5.65;;;3.78;;
77423;SDS011;66494;47.172;14.678;2023-03-23T01:50:47;5.22;;;3.17;;
77423;SDS011;66494;47.172;14.678;2023-03-23T01:51:51;6.53;;;3.75;;
77423;SDS011;66494;47.172;14.678;2023-03-23T01:52:53;6.35;;;3.70;;
77423;SDS011;66494;47.172;14.678;2023-03-23T01:53:57;4.05;;;3.10;;
77423;SDS011;66494;47.172;14.678;2023-03-23T01:54:59;5.20;;;3.50;;
77423;SDS011;66494;47.172;14.678;2023-03-23T01:56:00;7.45;;;4.00;;
77423;SDS011;66494;47.172;14.678;2023-03-23T01:57:02;8.20;;;3.40;;
77423;SDS011;66494;47.172;14.678;2023-03-23T01:58:03;6.13;;;3.22;;
77423;SDS011;66494;47.172;14.678;2023-03-23T01:59:04;6.18;;;3.97;;
77423;SDS011;66494;47.172;14.678;2023-03-23T02:00:06;9.90;;;3.60;;
77423;SDS011;66494;47.172;14.678;2023-03-23T02:01:16;5.22;;;3.55;;
77423;SDS011;66494;47.172;14.678;2023-03-23T02:02:16;9.02;;;3.70;;
77423;SDS011;66494;47.172;14.678;2023-03-23T02:03:17;4.78;;;3.92;;
77423;SDS011;66494;47.172;14.678;2023-03-23T02:04:17;7.60;;;3.25;;
77423;SDS011;66494;47.172;14.678;2023-03-23T02:05:26;5.50;;;3.83;;
77423;SDS011;66494;47.172;14.678;2023-03-23T02:06:28;4.95;;;3.78;;
77423;SDS011;66494;47.172;14.678;2023-03-23T02:07:28;5.32;;;3.35;;
77423;SDS011;66494;47.172;14.678;2023-03-23T02:08:29;5.30;;;3.03;;
77423;SDS011;66494;47.172;14.678;2023-03-23T02:09:32;5.45;;;3.28;;
77423;SDS011;66494;47.172;14.678;2023-03-23T02:10:32;5.45;;;3.67;;
77423;SDS011;66494;47.172;14.678;2023-03-23T02:11:33;5.35;;;3.80;;
77423;SDS011;66494;47.172;14.678;2023-03-23T02:12:33;4.13;;;3.55;;
77423;SDS011;66494;47.172;14.678;2023-03-23T02:13:33;4.97;;;3.80;;
77423;SDS011;66494;47.172;14.678;2023-03-23T02:14:33;7.82;;;4.20;;
77423;SDS011;66494;47.172;14.678;2023-03-23T02:16:42;4.97;;;4.18;;
77423;SDS011;66494;47.172;14.678;2023-03-23T02:17:46;5.70;;;3.97;;
77423;SDS011;66494;47.172;14.678;2023-03-23T02:19:04;4.55;;;3.60;;
77423;SDS011;66494;47.172;14.678;2023-03-23T02:20:13;5.95;;;3.33;;
77423;SDS011;66494;47.172;14.678;2023-03-23T02:22:52;6.28;;;3.97;;
77423;SDS011;66494;47.172;14.678;2023-03-23T02:26:24;6.40;;;3.75;;
77423;SDS011;66494;47.172;14.678;2023-03-23T02:27:40;4.03;;;2.92;;
77423;SDS011;66494;47.172;14.678;2023-03-23T02:31:47;5.00;;;3.53;;
77423;SDS011;66494;47.172;14.678;2023-03-23T02:35:21;5.72;;;3.67;;
77423;SDS011;66494;47.172;14.678;2023-03-23T02:36:29;6.80;;;3.97;;
77423;SDS011;66494;47.172;14.678;2023-03-23T02:37:31;4.78;;;3.22;;
77423;SDS011;66494;47.172;14.678;2023-03-23T02:38:35;4.53;;;3.28;;
77423;SDS011;66494;47.172;14.678;2023-03-23T02:40:11;4.43;;;3.38;;
77423;SDS011;66494;47.172;14.678;2023-03-23T02:41:08;4.78;;;3.25;;
77423;SDS011;66494;47.172;14.678;2023-03-23T02:42:10;4.85;;;3.38;;
77423;SDS011;66494;47.172;14.678;2023-03-23T02:43:16;7.68;;;3.25;;
77423;SDS011;66494;47.172;14.678;2023-03-23T02:44:16;4.97;;;3.17;;
77423;SDS011;66494;47.172;14.678;2023-03-23T02:46:17;4.70;;;3.40;;
77423;SDS011;66494;47.172;14.678;2023-03-23T02:47:20;5.57;;;3.33;;
77423;SDS011;66494;47.172;14.678;2023-03-23T02:48:22;4.05;;;3.45;;
77423;SDS011;66494;47.172;14.678;2023-03-23T02:49:24;5.10;;;3.80;;
77423;SDS011;66494;47.172;14.678;2023-03-23T02:50:25;7.20;;;3.70;;
77423;SDS011;66494;47.172;14.678;2023-03-23T02:51:26;7.15;;;3.30;;
77423;SDS011;66494;47.172;14.678;2023-03-23T02:52:29;5.65;;;3.60;;
77423;SDS011;66494;47.172;14.678;2023-03-23T02:53:30;7.10;;;3.53;;
77423;SDS011;66494;47.172;14.678;2023-03-23T02:54:33;3.95;;;3.33;;
77423;SDS011;66494;47.172;14.678;2023-03-23T02:56:33;3.85;;;2.80;;
77423;SDS011;66494;47.172;14.678;2023-03-23T02:57:34;4.75;;;3.60;;
77423;SDS011;66494;47.172;14.678;2023-03-23T02:58:37;6.05;;;3.15;;
77423;SDS011;66494;47.172;14.678;2023-03-23T03:00:37;4.32;;;3.42;;
77423;SDS011;66494;47.172;14.678;2023-03-23T03:03:40;5.90;;;3.60;;
77423;SDS011;66494;47.172;14.678;2023-03-23T03:04:41;6.30;;;4.03;;
77423;SDS011;66494;47.172;14.678;2023-03-23T03:07:07;5.15;;;3.38;;
77423;SDS011;66494;47.172;14.678;2023-03-23T03:09:17;4.50;;;3.60;;
77423;SDS011;66494;47.172;14.678;2023-03-23T03:10:27;4.82;;;3.42;;
77423;SDS011;66494;47.172;14.678;2023-03-23T03:11:29;8.10;;;3.03;;
77423;SDS011;66494;47.172;14.678;2023-03-23T03:12:51;5.57;;;3.28;;
77423;SDS011;66494;47.172;14.678;2023-03-23T03:14:07;3.63;;;2.95;;
77423;SDS011;66494;47.172;14.678;2023-03-23T03:18:27;4.97;;;3.60;;
77423;SDS011;66494;47.172;14.678;2023-03-23T03:19:29;5.60;;;3.63;;
77423;SDS011;66494;47.172;14.678;2023-03-23T03:20:30;7.25;;;3.65;;
77423;SDS011;66494;47.172;14.678;2023-03-23T03:22:31;6.07;;;3.33;;
77423;SDS011;66494;47.172;14.678;2023-03-23T03:24:32;6.32;;;3.65;;
77423;SDS011;66494;47.172;14.678;2023-03-23T03:25:32;5.47;;;3.60;;
77423;SDS011;66494;47.172;14.678;2023-03-23T03:26:33;6.32;;;3.67;;
77423;SDS011;66494;47.172;14.678;2023-03-23T03:28:35;5.70;;;2.67;;
77423;SDS011;66494;47.172;14.678;2023-03-23T03:30:35;7.57;;;3.15;;
77423;SDS011;66494;47.172;14.678;2023-03-23T03:31:38;3.63;;;3.13;;
77423;SDS011;66494;47.172;14.678;2023-03-23T03:32:46;9.00;;;3.60;;
77423;SDS011;66494;47.172;14.678;2023-03-23T03:33:48;4.57;;;3.53;;
77423;SDS011;66494;47.172;14.678;2023-03-23T03:35:50;4.50;;;3.45;;
77423;SDS011;66494;47.172;14.678;2023-03-23T03:37:51;4.32;;;3.35;;
77423;SDS011;66494;47.172;14.678;2023-03-23T03:38:52;7.05;;;4.05;;
77423;SDS011;66494;47.172;14.678;2023-03-23T03:39:53;4.75;;;3.55;;
77423;SDS011;66494;47.172;14.678;2023-03-23T03:40:53;4.43;;;3.33;;
77423;SDS011;66494;47.172;14.678;2023-03-23T03:41:54;6.15;;;3.38;;
77423;SDS011;66494;47.172;14.678;2023-03-23T03:42:55;5.30;;;3.78;;
77423;SDS011;66494;47.172;14.678;2023-03-23T03:43:55;5.85;;;3.42;;
77423;SDS011;66494;47.172;14.678;2023-03-23T03:44:55;6.57;;;3.42;;
77423;SDS011;66494;47.172;14.678;2023-03-23T03:45:55;6.03;;;3.22;;
77423;SDS011;66494;47.172;14.678;2023-03-23T03:47:56;5.55;;;3.42;;
77423;SDS011;66494;47.172;14.678;2023-03-23T03:48:56;4.50;;;3.35;;
77423;SDS011;66494;47.172;14.678;2023-03-23T03:49:57;6.13;;;3.20;;
77423;SDS011;66494;47.172;14.678;2023-03-23T03:50:57;4.95;;;3.53;;
77423;SDS011;66494;47.172;14.678;2023-03-23T03:51:57;4.93;;;3.65;;
77423;SDS011;66494;47.172;14.678;2023-03-23T03:52:57;4.90;;;3.80;;
77423;SDS011;66494;47.172;14.678;2023-03-23T03:53:58;4.30;;;3.47;;
77423;SDS011;66494;47.172;14.678;2023-03-23T03:54:58;6.18;;;3.58;;
77423;SDS011;66494;47.172;14.678;2023-03-23T03:55:58;6.45;;;4.22;;
77423;SDS011;66494;47.172;14.678;2023-03-23T03:56:59;5.63;;;3.78;;
77423;SDS011;66494;47.172;14.678;2023-03-23T03:58:00;4.90;;;3.75;;
77423;SDS011;66494;47.172;14.678;2023-03-23T03:59:00;7.47;;;3.67;;
77423;SDS011;66494;47.172;14.678;2023-03-23T04:00:00;7.15;;;3.47;;
77423;SDS011;66494;47.172;14.678;2023-03-23T04:01:12;4.63;;;3.50;;
77423;SDS011;66494;47.172;14.678;2023-03-23T04:02:14;5.07;;;3.88;;
77423;SDS011;66494;47.172;14.678;2023-03-23T04:03:16;4.70;;;3.90;;
77423;SDS011;66494;47.172;14.678;2023-03-23T04:05:17;4.15;;;3.03;;
77423;SDS011;66494;47.172;14.678;2023-03-23T04:06:18;5.88;;;3.65;;
77423;SDS011;66494;47.172;14.678;2023-03-23T04:08:19;5.18;;;3.65;;
77423;SDS011;66494;47.172;14.678;2023-03-23T04:10:20;5.80;;;3.28;;
77423;SDS011;66494;47.172;14.678;2023-03-23T04:11:21;5.07;;;3.78;;
77423;SDS011;66494;47.172;14.678;2023-03-23T04:13:21;8.70;;;3.63;;
77423;SDS011;66494;47.172;14.678;2023-03-23T04:14:22;6.63;;;4.45;;
77423;SDS011;66494;47.172;14.678;2023-03-23T04:15:22;5.57;;;3.90;;
77423;SDS011;66494;47.172;14.678;2023-03-23T04:16:22;4.47;;;3.28;;
77423;SDS011;66494;47.172;14.678;2023-03-23T04:17:23;4.68;;;3.22;;
77423;SDS011;66494;47.172;14.678;2023-03-23T04:18:26;7.93;;;3.72;;
77423;SDS011;66494;47.172;14.678;2023-03-23T04:20:28;4.82;;;3.35;;
77423;SDS011;66494;47.172;14.678;2023-03-23T04:21:28;5.30;;;3.58;;
77423;SDS011;66494;47.172;14.678;2023-03-23T04:22:29;6.57;;;4.07;;
77423;SDS011;66494;47.172;14.678;2023-03-23T04:23:32;6.55;;;3.90;;
77423;SDS011;66494;47.172;14.678;2023-03-23T04:26:35;11.50;;;5.70;;
77423;SDS011;66494;47.172;14.678;2023-03-23T04:27:36;9.77;;;6.22;;
77423;SDS011;66494;47.172;14.678;2023-03-23T04:28:36;11.52;;;7.30;;
77423;SDS011;66494;47.172;14.678;2023-03-23T04:29:36;11.68;;;6.88;;
77423;SDS011;66494;47.172;14.678;2023-03-23T04:30:37;17.25;;;9.15;;
77423;SDS011;66494;47.172;14.678;2023-03-23T04:31:37;11.48;;;9.70;;
77423;SDS011;66494;47.172;14.678;2023-03-23T04:32:37;12.30;;;9.50;;
77423;SDS011;66494;47.172;14.678;2023-03-23T04:33:41;11.50;;;8.95;;
77423;SDS011;66494;47.172;14.678;2023-03-23T04:35:43;13.25;;;8.27;;
77423;SDS011;66494;47.172;14.678;2023-03-23T04:36:45;12.80;;;8.30;;
77423;SDS011;66494;47.172;14.678;2023-03-23T04:38:46;12.03;;;7.83;;
77423;SDS011;66494;47.172;14.678;2023-03-23T04:39:46;10.77;;;7.93;;
77423;SDS011;66494;47.172;14.678;2023-03-23T04:40:47;10.55;;;7.85;;
77423;SDS011;66494;47.172;14.678;2023-03-23T04:42:48;11.57;;;8.17;;
77423;SDS011;66494;47.172;14.678;2023-03-23T04:43:49;10.27;;;7.35;;
77423;SDS011;66494;47.172;14.678;2023-03-23T04:44:52;11.63;;;7.75;;
77423;SDS011;66494;47.172;14.678;2023-03-23T04:45:56;12.60;;;8.32;;
77423;SDS011;66494;47.172;14.678;2023-03-23T04:46:56;13.10;;;7.72;;
77423;SDS011;66494;47.172;14.678;2023-03-23T04:48:58;12.65;;;8.75;;
77423;SDS011;66494;47.172;14.678;2023-03-23T04:49:58;13.88;;;7.53;;
77423;SDS011;66494;47.172;14.678;2023-03-23T04:52:00;11.77;;;6.90;;
77423;SDS011;66494;47.172;14.678;2023-03-23T04:54:04;8.30;;;6.07;;
77423;SDS011;66494;47.172;14.678;2023-03-23T04:56:04;10.15;;;5.75;;
77423;SDS011;66494;47.172;14.678;2023-03-23T04:58:05;8.65;;;5.18;;
77423;SDS011;66494;47.172;14.678;2023-03-23T05:00:06;7.17;;;5.33;;
77423;SDS011;66494;47.172;14.678;2023-03-23T05:01:12;9.15;;;5.35;;
77423;SDS011;66494;47.172;14.678;2023-03-23T05:02:14;10.88;;;5.88;;
77423;SDS011;66494;47.172;14.678;2023-03-23T05:04:16;7.60;;;4.88;;
77423;SDS011;66494;47.172;14.678;2023-03-23T05:05:16;7.13;;;4.95;;
77423;SDS011;66494;47.172;14.678;2023-03-23T05:06:17;8.43;;;5.75;;
77423;SDS011;66494;47.172;14.678;2023-03-23T05:07:17;8.35;;;4.97;;
77423;SDS011;66494;47.172;14.678;2023-03-23T05:08:19;6.43;;;4.88;;
77423;SDS011;66494;47.172;14.678;2023-03-23T05:09:19;8.25;;;4.82;;
77423;SDS011;66494;47.172;14.678;2023-03-23T05:11:20;10.32;;;5.13;;
77423;SDS011;66494;47.172;14.678;2023-03-23T05:13:21;6.15;;;4.80;;
77423;SDS011;66494;47.172;14.678;2023-03-23T05:14:21;4.47;;;3.65;;
77423;SDS011;66494;47.172;14.678;2023-03-23T05:16:22;5.20;;;3.28;;
77423;SDS011;66494;47.172;14.678;2023-03-23T05:17:22;6.00;;;4.13;;
77423;SDS011;66494;47.172;14.678;2023-03-23T05:18:24;5.57;;;4.05;;
77423;SDS011;66494;47.172;14.678;2023-03-23T05:19:26;6.47;;;4.20;;
77423;SDS011;66494;47.172;14.678;2023-03-23T05:20:27;8.55;;;3.90;;
77423;SDS011;66494;47.172;14.678;2023-03-23T05:21:30;8.40;;;4.95;;
77423;SDS011;66494;47.172;14.678;2023-03-23T05:23:32;10.07;;;5.35;;
77423;SDS011;66494;47.172;14.678;2023-03-23T05:24:33;7.18;;;5.55;;
77423;SDS011;66494;47.172;14.678;2023-03-23T05:26:36;7.97;;;5.50;;
77423;SDS011;66494;47.172;14.678;2023-03-23T05:28:37;8.02;;;5.25;;
77423;SDS011;66494;47.172;14.678;2023-03-23T05:29:37;7.65;;;5.15;;
77423;SDS011;66494;47.172;14.678;2023-03-23T05:30:40;8.90;;;5.75;;
77423;SDS011;66494;47.172;14.678;2023-03-23T05:32:41;7.30;;;4.88;;
77423;SDS011;66494;47.172;14.678;2023-03-23T05:33:41;10.85;;;6.03;;
77423;SDS011;66494;47.172;14.678;2023-03-23T05:34:42;12.70;;;6.05;;
77423;SDS011;66494;47.172;14.678;2023-03-23T05:36:43;8.50;;;5.57;;
77423;SDS011;66494;47.172;14.678;2023-03-23T05:37:43;9.13;;;5.65;;
77423;SDS011;66494;47.172;14.678;2023-03-23T05:38:45;10.20;;;6.20;;
77423;SDS011;66494;47.172;14.678;2023-03-23T05:39:47;9.52;;;6.38;;
77423;SDS011;66494;47.172;14.678;2023-03-23T05:41:48;7.68;;;5.60;;
77423;SDS011;66494;47.172;14.678;2023-03-23T05:42:49;9.73;;;6.18;;
77423;SDS011;66494;47.172;14.678;2023-03-23T05:43:49;11.18;;;5.47;;
77423;SDS011;66494;47.172;14.678;2023-03-23T05:45:49;11.30;;;6.78;;
77423;SDS011;66494;47.172;14.678;2023-03-23T05:47:49;25.13;;;6.65;;
77423;SDS011;66494;47.172;14.678;2023-03-23T05:48:50;10.93;;;5.85;;
77423;SDS011;66494;47.172;14.678;2023-03-23T05:50:50;8.85;;;5.55;;
77423;SDS011;66494;47.172;14.678;2023-03-23T05:52:51;9.00;;;6.22;;
77423;SDS011;66494;47.172;14.678;2023-03-23T05:53:51;10.77;;;6.50;;
77423;SDS011;66494;47.172;14.678;2023-03-23T05:54:52;8.90;;;7.00;;
77423;SDS011;66494;47.172;14.678;2023-03-23T05:55:52;9.98;;;6.35;;
77423;SDS011;66494;47.172;14.678;2023-03-23T05:56:53;10.73;;;6.85;;
77423;SDS011;66494;47.172;14.678;2023-03-23T05:58:59;10.60;;;6.60;;
77423;SDS011;66494;47.172;14.678;2023-03-23T06:00:00;8.25;;;5.75;;
77423;SDS011;66494;47.172;14.678;2023-03-23T06:01:08;7.15;;;5.68;;
77423;SDS011;66494;47.172;14.678;2023-03-23T06:02:08;8.35;;;6.03;;
77423;SDS011;66494;47.172;14.678;2023-03-23T06:03:10;8.65;;;5.45;;
77423;SDS011;66494;47.172;14.678;2023-03-23T06:05:11;6.68;;;4.65;;
77423;SDS011;66494;47.172;14.678;2023-03-23T06:06:13;9.68;;;5.95;;
77423;SDS011;66494;47.172;14.678;2023-03-23T06:08:14;8.73;;;5.72;;
77423;SDS011;66494;47.172;14.678;2023-03-23T06:09:14;12.48;;;6.50;;
77423;SDS011;66494;47.172;14.678;2023-03-23T06:11:16;9.45;;;6.40;;
77423;SDS011;66494;47.172;14.678;2023-03-23T06:13:20;9.95;;;6.57;;
77423;SDS011;66494;47.172;14.678;2023-03-23T06:15:21;8.60;;;6.10;;
77423;SDS011;66494;47.172;14.678;2023-03-23T06:16:21;9.80;;;6.60;;
77423;SDS011;66494;47.172;14.678;2023-03-23T06:17:22;13.30;;;7.22;;
77423;SDS011;66494;47.172;14.678;2023-03-23T06:18:22;11.38;;;6.13;;
77423;SDS011;66494;47.172;14.678;2023-03-23T06:19:23;9.07;;;6.03;;
77423;SDS011;66494;47.172;14.678;2023-03-23T06:20:26;12.50;;;6.18;;
77423;SDS011;66494;47.172;14.678;2023-03-23T06:22:27;8.35;;;6.32;;
77423;SDS011;66494;47.172;14.678;2023-03-23T06:23:27;10.38;;;6.38;;
77423;SDS011;66494;47.172;14.678;2023-03-23T06:24:27;8.77;;;5.95;;
77423;SDS011;66494;47.172;14.678;2023-03-23T06:25:27;11.27;;;6.40;;
77423;SDS011;66494;47.172;14.678;2023-03-23T06:26:30;17.70;;;6.72;;
77423;SDS011;66494;47.172;14.678;2023-03-23T06:27:31;11.80;;;6.75;;
77423;SDS011;66494;47.172;14.678;2023-03-23T06:28:31;11.35;;;6.20;;
77423;SDS011;66494;47.172;14.678;2023-03-23T06:29:31;14.88;;;6.95;;
77423;SDS011;66494;47.172;14.678;2023-03-23T06:30:32;10.27;;;6.45;;
77423;SDS011;66494;47.172;14.678;2023-03-23T06:31:33;16.80;;;6.85;;
77423;SDS011;66494;47.172;14.678;2023-03-23T06:33:34;9.07;;;5.75;;
77423;SDS011;66494;47.172;14.678;2023-03-23T06:34:34;7.57;;;5.28;;
77423;SDS011;66494;47.172;14.678;2023-03-23T06:35:34;58.85;;;34.97;;
77423;SDS011;66494;47.172;14.678;2023-03-23T06:36:35;16.50;;;10.77;;
77423;SDS011;66494;47.172;14.678;2023-03-23T06:37:36;15.80;;;9.30;;
77423;SDS011;66494;47.172;14.678;2023-03-23T06:38:36;22.25;;;14.38;;
77423;SDS011;66494;47.172;14.678;2023-03-23T06:39:37;96.38;;;54.50;;
77423;SDS011;66494;47.172;14.678;2023-03-23T06:40:38;62.15;;;37.50;;
77423;SDS011;66494;47.172;14.678;2023-03-23T06:41:38;27.20;;;15.90;;
77423;SDS011;66494;47.172;14.678;2023-03-23T06:42:38;173.18;;;93.43;;
77423;SDS011;66494;47.172;14.678;2023-03-23T06:43:38;91.97;;;53.30;;
77423;SDS011;66494;47.172;14.678;2023-03-23T06:44:39;40.72;;;22.75;;
77423;SDS011;66494;47.172;14.678;2023-03-23T06:45:40;19.23;;;10.90;;
77423;SDS011;66494;47.172;14.678;2023-03-23T06:46:40;88.95;;;52.65;;
77423;SDS011;66494;47.172;14.678;2023-03-23T06:47:41;100.70;;;55.33;;
77423;SDS011;66494;47.172;14.678;2023-03-23T06:48:41;70.28;;;39.40;;
77423;SDS011;66494;47.172;14.678;2023-03-23T06:49:41;28.90;;;13.80;;
77423;SDS011;66494;47.172;14.678;2023-03-23T06:50:42;14.00;;;8.15;;
77423;SDS011;66494;47.172;14.678;2023-03-23T06:52:46;9.40;;;5.63;;
77423;SDS011;66494;47.172;14.678;2023-03-23T06:53:47;10.57;;;6.13;;
77423;SDS011;66494;47.172;14.678;2023-03-23T06:54:47;6.70;;;4.78;;
77423;SDS011;66494;47.172;14.678;2023-03-23T06:55:47;9.93;;;5.10;;
77423;SDS011;66494;47.172;14.678;2023-03-23T06:56:48;6.43;;;4.80;;
77423;SDS011;66494;47.172;14.678;2023-03-23T06:57:48;5.43;;;4.68;;
77423;SDS011;66494;47.172;14.678;2023-03-23T06:58:48;7.55;;;5.03;;
77423;SDS011;66494;47.172;14.678;2023-03-23T06:59:48;8.23;;;5.10;;
77423;SDS011;66494;47.172;14.678;2023-03-23T07:00:53;6.47;;;4.43;;
77423;SDS011;66494;47.172;14.678;2023-03-23T07:01:53;8.90;;;4.50;;
77423;SDS011;66494;47.172;14.678;2023-03-23T07:02:53;6.28;;;4.47;;
77423;SDS011;66494;47.172;14.678;2023-03-23T07:03:54;8.15;;;5.22;;
77423;SDS011;66494;47.172;14.678;2023-03-23T07:04:55;8.50;;;4.70;;
77423;SDS011;66494;47.172;14.678;2023-03-23T07:05:56;7.03;;;3.95;;
77423;SDS011;66494;47.172;14.678;2023-03-23T07:06:56;6.15;;;4.03;;
77423;SDS011;66494;47.172;14.678;2023-03-23T07:07:56;8.93;;;4.68;;
77423;SDS011;66494;47.172;14.678;2023-03-23T07:08:57;5.72;;;3.75;;
77423;SDS011;66494;47.172;14.678;2023-03-23T07:09:57;5.38;;;4.35;;
77423;SDS011;66494;47.172;14.678;2023-03-23T07:10:58;6.70;;;4.25;;
77423;SDS011;66494;47.172;14.678;2023-03-23T07:11:58;6.57;;;3.80;;
77423;SDS011;66494;47.172;14.678;2023-03-23T07:12:58;4.78;;;3.95;;
77423;SDS011;66494;47.172;14.678;2023-03-23T07:13:59;5.93;;;3.72;;
77423;SDS011;66494;47.172;14.678;2023-03-23T07:14:59;6.32;;;4.15;;
77423;SDS011;66494;47.172;14.678;2023-03-23T07:15:59;5.57;;;3.25;;
77423;SDS011;66494;47.172;14.678;2023-03-23T07:17:00;4.95;;;3.85;;